Time;durP1;ratioP1;P1;durP2;ratioP2;P2;SDS_P1;SDS_P2;PMS_P1;PMS_P2;Temp;Humidity;BMP_temperature;BMP_pressure;BME280_temperature;BME280_humidity;BME280_pressure;Samples;Min_cycle;Max_cycle;Signal;HPM_P1;HPM_P2
2023/12/12 00:03:36;;;;;;;3.70;1.00;;;;;;;;;;103541;1294;544768;-76
2023/12/12 00:07:13;;;;;;;3.90;1.20;;;;;;;;;;103790;1292;546378;-73
2023/12/12 00:10:52;;;;;;;3.30;0.90;;;;;;;;;;103916;1294;545312;-73
2023/12/12 00:14:29;;;;;;;2.70;1.00;;;;;;;;;;103808;1292;545037;-71
2023/12/12 00:18:06;;;;;;;3.70;1.00;;;;;;;;;;103834;1291;544930;-74
2023/12/12 00:21:44;;;;;;;4.40;0.90;;;;;;;;;;103738;1295;545169;-71
2023/12/12 00:25:21;;;;;;;3.90;1.10;;;;;;;;;;103863;1295;546440;-71
2023/12/12 00:28:59;;;;;;;3.20;1.10;;;;;;;;;;103564;1295;545969;-71
2023/12/12 00:32:37;;;;;;;4.80;1.40;;;;;;;;;;103692;1293;546000;-74
2023/12/12 00:36:13;;;;;;;3.60;1.10;;;;;;;;;;103597;1295;545440;-73
2023/12/12 00:39:51;;;;;;;3.40;1.10;;;;;;;;;;104368;1282;544994;-71
2023/12/12 00:43:29;;;;;;;3.90;0.90;;;;;;;;;;103513;1297;544818;-71
2023/12/12 00:47:06;;;;;;;3.00;0.90;;;;;;;;;;103877;1289;544654;-72
2023/12/12 00:50:43;;;;;;;5.20;1.10;;;;;;;;;;103843;1292;544827;-72
2023/12/12 00:54:21;;;;;;;4.00;0.90;;;;;;;;;;104393;1285;545595;-72
2023/12/12 00:57:58;;;;;;;3.40;0.90;;;;;;;;;;103778;1291;544853;-72
2023/12/12 01:01:36;;;;;;;2.50;0.70;;;;;;;;;;103826;1294;544812;-72
2023/12/12 01:05:09;;;;;;;3.50;1.00;;;;;;;;;;103802;1291;546643;-73
2023/12/12 01:08:50;;;;;;;3.60;0.80;;;;;;;;;;103753;1293;545607;-72
2023/12/12 01:13:18;;;;;;;3.90;1.00;;;;;;;;;;104531;1285;545391;-78
2023/12/12 01:16:06;;;;;;;4.20;1.00;;;;;;;;;;103813;1290;544882;-72
2023/12/12 01:19:43;;;;;;;3.60;0.90;;;;;;;;;;103877;1289;545573;-71
2023/12/12 01:23:21;;;;;;;2.70;0.80;;;;;;;;;;103842;1302;545100;-73
2023/12/12 01:26:58;;;;;;;3.30;0.70;;;;;;;;;;104079;1289;545600;-76
2023/12/12 01:30:32;;;;;;;3.00;0.90;;;;;;;;;;103806;1290;546631;-72
2023/12/12 01:34:13;;;;;;;3.00;0.70;;;;;;;;;;104585;1282;545355;-71
2023/12/12 01:37:51;;;;;;;3.00;0.70;;;;;;;;;;103514;1294;545060;-73
2023/12/12 01:41:28;;;;;;;3.60;0.80;;;;;;;;;;103875;1292;546036;-71
2023/12/12 01:45:06;;;;;;;3.60;0.70;;;;;;;;;;103823;1296;544816;-76
2023/12/12 01:48:43;;;;;;;3.70;0.90;;;;;;;;;;103703;1291;544823;-78
2023/12/12 01:52:22;;;;;;;3.60;0.70;;;;;;;;;;103792;1291;544922;-76
2023/12/12 01:55:59;;;;;;;2.60;0.80;;;;;;;;;;103804;1290;544988;-72
2023/12/12 01:59:36;;;;;;;2.50;0.80;;;;;;;;;;103709;1292;545044;-76
2023/12/12 02:03:09;;;;;;;2.00;0.60;;;;;;;;;;103842;1299;546038;-71
2023/12/12 02:06:51;;;;;;;1.50;0.60;;;;;;;;;;103937;1289;544758;-74
2023/12/12 02:10:28;;;;;;;3.00;0.60;;;;;;;;;;103463;1294;544990;-75
2023/12/12 02:14:05;;;;;;;2.10;0.70;;;;;;;;;;103548;1298;545086;-73
2023/12/12 02:17:43;;;;;;;2.50;0.70;;;;;;;;;;103803;1292;545537;-71
2023/12/12 02:21:21;;;;;;;3.40;0.70;;;;;;;;;;103721;1291;545308;-71
2023/12/12 02:24:58;;;;;;;5.50;1.30;;;;;;;;;;103989;1291;545030;-71
2023/12/12 02:28:35;;;;;;;3.40;0.90;;;;;;;;;;103777;1295;545086;-72
2023/12/12 02:32:12;;;;;;;3.90;0.80;;;;;;;;;;103842;1291;544962;-72
2023/12/12 02:35:49;;;;;;;4.60;1.00;;;;;;;;;;104585;1286;544751;-71
2023/12/12 02:39:28;;;;;;;3.00;1.00;;;;;;;;;;103674;1292;545156;-77
2023/12/12 02:43:05;;;;;;;3.80;0.70;;;;;;;;;;103706;1292;544866;-72
2023/12/12 02:46:42;;;;;;;3.90;0.90;;;;;;;;;;103852;1290;544812;-71
2023/12/12 02:50:20;;;;;;;3.10;0.70;;;;;;;;;;103758;1290;545081;-72
2023/12/12 02:53:57;;;;;;;3.50;1.00;;;;;;;;;;103804;1288;544764;-74
2023/12/12 02:57:35;;;;;;;5.20;1.20;;;;;;;;;;103730;1295;544781;-71
2023/12/12 03:01:12;;;;;;;3.60;0.90;;;;;;;;;;103818;1292;545414;-72
2023/12/12 03:04:50;;;;;;;5.10;1.00;;;;;;;;;;103595;1295;545888;-72
2023/12/12 03:08:27;;;;;;;4.80;1.00;;;;;;;;;;103599;1292;545370;-71
2023/12/12 03:12:05;;;;;;;4.50;1.00;;;;;;;;;;103642;1292;546121;-70
2023/12/12 03:15:42;;;;;;;4.40;1.00;;;;;;;;;;103794;1293;544977;-71
2023/12/12 03:19:19;;;;;;;4.10;1.00;;;;;;;;;;103829;1289;545035;-73
2023/12/12 03:22:57;;;;;;;5.90;1.10;;;;;;;;;;104146;1286;544594;-71
2023/12/12 03:26:34;;;;;;;4.00;0.90;;;;;;;;;;103723;1296;545677;-73
2023/12/12 03:30:11;;;;;;;3.00;1.00;;;;;;;;;;103853;1290;545641;-80
2023/12/12 03:33:49;;;;;;;3.70;1.10;;;;;;;;;;103761;1290;544600;-71
2023/12/12 03:37:27;;;;;;;5.30;1.30;;;;;;;;;;103840;1292;544888;-71
2023/12/12 03:41:04;;;;;;;4.80;1.00;;;;;;;;;;103790;1290;545239;-71
2023/12/12 03:44:42;;;;;;;3.90;1.00;;;;;;;;;;103773;1291;545085;-71
2023/12/12 03:48:19;;;;;;;4.80;1.20;;;;;;;;;;103823;1289;545383;-76
2023/12/12 03:51:56;;;;;;;5.10;1.60;;;;;;;;;;103825;1289;544996;-72
2023/12/12 03:55:34;;;;;;;4.70;1.10;;;;;;;;;;103773;1291;545383;-71
2023/12/12 03:59:11;;;;;;;5.00;1.00;;;;;;;;;;103748;1292;545635;-70
2023/12/12 04:02:50;;;;;;;4.60;1.50;;;;;;;;;;103529;1295;544884;-72
2023/12/12 04:06:26;;;;;;;7.40;1.50;;;;;;;;;;103810;1292;544924;-71
2023/12/12 04:10:05;;;;;;;5.50;1.50;;;;;;;;;;103818;1289;545271;-72
2023/12/12 04:13:37;;;;;;;5.00;1.30;;;;;;;;;;103806;1292;546051;-71
2023/12/12 04:17:19;;;;;;;5.80;1.50;;;;;;;;;;103808;1295;545500;-72
2023/12/12 04:20:56;;;;;;;2.90;1.00;;;;;;;;;;103681;1292;544888;-71
2023/12/12 04:24:35;;;;;;;4.50;1.20;;;;;;;;;;103811;1292;544854;-71
2023/12/12 04:28:11;;;;;;;3.40;1.20;;;;;;;;;;103593;1294;545230;-72
2023/12/12 04:31:49;;;;;;;3.60;0.90;;;;;;;;;;103615;1294;545941;-71
2023/12/12 04:35:26;;;;;;;3.40;0.80;;;;;;;;;;103808;1290;545750;-75
2023/12/12 04:39:05;;;;;;;4.90;1.10;;;;;;;;;;104105;1287;546046;-71
2023/12/12 04:42:42;;;;;;;3.60;1.10;;;;;;;;;;103821;1292;545581;-75
2023/12/12 04:46:19;;;;;;;5.90;1.50;;;;;;;;;;103676;1292;544835;-72
2023/12/12 04:49:56;;;;;;;4.50;1.10;;;;;;;;;;103773;1289;544783;-73
2023/12/12 04:53:33;;;;;;;4.40;1.20;;;;;;;;;;103664;1295;546090;-72
2023/12/12 04:57:07;;;;;;;4.70;1.20;;;;;;;;;;103853;1295;545780;-71
2023/12/12 05:00:48;;;;;;;4.60;0.80;;;;;;;;;;103890;1289;544993;-72
2023/12/12 05:04:26;;;;;;;2.90;0.80;;;;;;;;;;103798;1292;545801;-72
2023/12/12 05:08:03;;;;;;;2.70;0.80;;;;;;;;;;103754;1292;544837;-71
2023/12/12 05:11:40;;;;;;;3.20;0.90;;;;;;;;;;103847;1289;545025;-74
2023/12/12 05:15:18;;;;;;;4.60;0.90;;;;;;;;;;103659;1293;544795;-71
2023/12/12 05:18:56;;;;;;;1.90;0.50;;;;;;;;;;103916;1292;544972;-72
2023/12/12 05:22:34;;;;;;;3.10;0.70;;;;;;;;;;103904;1288;545057;-72
2023/12/12 05:26:11;;;;;;;2.50;0.60;;;;;;;;;;103748;1294;544919;-73
2023/12/12 05:29:48;;;;;;;2.60;0.70;;;;;;;;;;103808;1288;544908;-71
2023/12/12 05:33:28;;;;;;;3.20;0.60;;;;;;;;;;103633;1293;545210;-71
2023/12/12 05:37:05;;;;;;;4.10;0.80;;;;;;;;;;104525;1285;544867;-71
2023/12/12 05:40:40;;;;;;;2.50;0.60;;;;;;;;;;103813;1289;545451;-71
2023/12/12 05:44:17;;;;;;;4.50;0.70;;;;;;;;;;103781;1289;545149;-72
2023/12/12 05:47:55;;;;;;;3.60;0.70;;;;;;;;;;103999;1292;545225;-73
2023/12/12 05:51:34;;;;;;;3.80;0.90;;;;;;;;;;103824;1292;544912;-72
2023/12/12 05:55:10;;;;;;;3.00;0.80;;;;;;;;;;103778;1293;545408;-78
2023/12/12 05:58:49;;;;;;;2.50;0.70;;;;;;;;;;103770;1301;544918;-72
2023/12/12 06:02:25;;;;;;;2.90;0.80;;;;;;;;;;103738;1291;545064;-78
2023/12/12 06:06:03;;;;;;;9.40;2.70;;;;;;;;;;103800;1292;544797;-76
2023/12/12 06:09:41;;;;;;;10.20;3.80;;;;;;;;;;103829;1289;545798;-73
2023/12/12 06:13:17;;;;;;;12.50;4.20;;;;;;;;;;103781;1292;544989;-71
2023/12/12 06:16:55;;;;;;;10.90;3.20;;;;;;;;;;103883;1288;545707;-72
2023/12/12 06:20:33;;;;;;;7.30;2.40;;;;;;;;;;103723;1293;545621;-79
2023/12/12 06:24:10;;;;;;;7.20;2.40;;;;;;;;;;103502;1295;544788;-78
2023/12/12 06:27:56;;;;;;;5.50;1.80;;;;;;;;;;103752;1292;545702;-78
2023/12/12 06:31:25;;;;;;;6.10;1.90;;;;;;;;;;103602;1291;544781;-72
2023/12/12 06:35:04;;;;;;;9.00;3.60;;;;;;;;;;103859;1292;545163;-71
2023/12/12 06:38:40;;;;;;;6.70;1.70;;;;;;;;;;103970;1292;545009;-72
2023/12/12 06:42:17;;;;;;;8.30;2.60;;;;;;;;;;104036;1290;545417;-74
2023/12/12 06:45:55;;;;;;;5.20;1.60;;;;;;;;;;103782;1293;544964;-79
2023/12/12 06:49:32;;;;;;;7.30;2.30;;;;;;;;;;103677;1303;545343;-71
2023/12/12 06:53:10;;;;;;;6.20;1.40;;;;;;;;;;103836;1290;545121;-71
2023/12/12 06:56:47;;;;;;;5.70;1.50;;;;;;;;;;103800;1289;544922;-72
2023/12/12 07:00:25;;;;;;;7.20;1.70;;;;;;;;;;103778;1292;546223;-77
2023/12/12 07:04:02;;;;;;;6.30;1.90;;;;;;;;;;103778;1290;545590;-78
2023/12/12 07:07:40;;;;;;;6.80;2.00;;;;;;;;;;103892;1292;546549;-71
2023/12/12 07:11:17;;;;;;;6.60;2.00;;;;;;;;;;103832;1289;544925;-72
2023/12/12 07:14:55;;;;;;;6.40;1.70;;;;;;;;;;103857;1291;545860;-72
2023/12/12 07:18:32;;;;;;;6.60;1.80;;;;;;;;;;103592;1295;545973;-72
2023/12/12 07:22:09;;;;;;;7.90;1.90;;;;;;;;;;103657;1291;545070;-76
2023/12/12 07:25:47;;;;;;;8.30;2.20;;;;;;;;;;104191;1285;544777;-71
2023/12/12 07:29:24;;;;;;;8.20;2.40;;;;;;;;;;103862;1291;545174;-74
2023/12/12 07:33:02;;;;;;;6.60;2.10;;;;;;;;;;103683;1291;546129;-71
2023/12/12 07:36:40;;;;;;;13.10;5.20;;;;;;;;;;104051;1289;545035;-73
2023/12/12 07:40:17;;;;;;;13.40;6.50;;;;;;;;;;103831;1289;544904;-73
2023/12/12 07:43:54;;;;;;;12.40;5.00;;;;;;;;;;103889;1293;544914;-72
2023/12/12 07:47:32;;;;;;;11.90;4.00;;;;;;;;;;103810;1291;545070;-71
2023/12/12 07:51:10;;;;;;;9.90;3.80;;;;;;;;;;103805;1290;545513;-70
2023/12/12 07:54:43;;;;;;;10.90;4.00;;;;;;;;;;103905;1289;545010;-75
2023/12/12 07:58:24;;;;;;;10.40;3.30;;;;;;;;;;104623;1283;544802;-72
2023/12/12 08:02:01;;;;;;;9.30;3.50;;;;;;;;;;103886;1289;545043;-71
2023/12/12 08:05:39;;;;;;;11.60;3.90;;;;;;;;;;103751;1290;545632;-72
2023/12/12 08:09:13;;;;;;;12.50;4.40;;;;;;;;;;103857;1294;545000;-77
2023/12/12 08:12:54;;;;;;;9.80;3.00;;;;;;;;;;104552;1282;544894;-72
2023/12/12 08:16:33;;;;;;;13.90;4.60;;;;;;;;;;103755;1292;545542;-72
2023/12/12 08:20:15;;;;;;;12.70;4.30;;;;;;;;;;103775;1295;547988;-79
2023/12/12 08:23:48;;;;;;;11.00;3.20;;;;;;;;;;103635;1295;545166;-72
2023/12/12 08:27:23;;;;;;;13.20;5.40;;;;;;;;;;103794;1290;545028;-72
2023/12/12 08:31:01;;;;;;;14.00;5.40;;;;;;;;;;103791;1293;544733;-71
2023/12/12 08:34:39;;;;;;;16.70;7.00;;;;;;;;;;103640;1293;544959;-72
2023/12/12 08:38:16;;;;;;;17.40;7.70;;;;;;;;;;103524;1295;545110;-75
2023/12/12 08:41:54;;;;;;;13.10;6.00;;;;;;;;;;104579;1283;544906;-72
2023/12/12 08:45:32;;;;;;;11.70;4.10;;;;;;;;;;103902;1291;545419;-72
2023/12/12 08:49:09;;;;;;;9.40;3.30;;;;;;;;;;103934;1292;544958;-71
2023/12/12 08:52:42;;;;;;;14.20;5.90;;;;;;;;;;103771;1290;545486;-78
2023/12/12 08:56:25;;;;;;;11.00;4.00;;;;;;;;;;103755;1291;545323;-72
2023/12/12 09:00:08;;;;;;;9.50;3.20;;;;;;;;;;103416;1297;548053;-80
2023/12/12 09:03:38;;;;;;;12.30;6.00;;;;;;;;;;103836;1289;545619;-72
2023/12/12 09:07:16;;;;;;;10.40;3.60;;;;;;;;;;103761;1291;545015;-71
2023/12/12 09:10:53;;;;;;;8.30;3.30;;;;;;;;;;103797;1289;545772;-72
2023/12/12 09:14:31;;;;;;;10.00;3.40;;;;;;;;;;103842;1295;544815;-71
2023/12/12 09:18:09;;;;;;;7.30;2.30;;;;;;;;;;103779;1289;544972;-70
2023/12/12 09:21:48;;;;;;;7.00;2.20;;;;;;;;;;103709;1295;544955;-78
2023/12/12 09:25:25;;;;;;;7.80;1.90;;;;;;;;;;103806;1291;546186;-83
2023/12/12 09:29:01;;;;;;;7.70;2.30;;;;;;;;;;103765;1302;544777;-79
2023/12/12 09:32:38;;;;;;;5.80;1.70;;;;;;;;;;103865;1289;547107;-71
2023/12/12 09:36:15;;;;;;;11.30;4.30;;;;;;;;;;103832;1289;544829;-72
2023/12/12 09:39:53;;;;;;;21.00;10.60;;;;;;;;;;103566;1295;546605;-80
2023/12/12 09:43:32;;;;;;;12.50;6.40;;;;;;;;;;103652;1291;544770;-79
2023/12/12 09:47:09;;;;;;;7.30;2.80;;;;;;;;;;103737;1289;545049;-79
2023/12/12 09:50:46;;;;;;;11.30;4.90;;;;;;;;;;103849;1290;545385;-73
2023/12/12 09:54:23;;;;;;;11.20;5.80;;;;;;;;;;103621;1293;545536;-79
2023/12/12 09:58:00;;;;;;;9.00;4.00;;;;;;;;;;103797;1294;545597;-72
2023/12/12 10:01:39;;;;;;;17.00;9.40;;;;;;;;;;103840;1289;545745;-72
2023/12/12 10:05:21;;;;;;;14.90;9.60;;;;;;;;;;103694;1290;548119;-80
2023/12/12 10:08:53;;;;;;;10.00;5.20;;;;;;;;;;103828;1292;545084;-73
2023/12/12 10:12:31;;;;;;;8.80;3.60;;;;;;;;;;103743;1291;544783;-75
2023/12/12 10:16:30;;;;;;;11.00;6.70;;;;;;;;;;103563;1298;547790;-75
2023/12/12 10:20:07;;;;;;;11.00;7.20;;;;;;;;;;103389;1297;549163;-70
2023/12/12 10:23:23;;;;;;;8.20;2.80;;;;;;;;;;103770;1291;544991;-72
2023/12/12 10:27:01;;;;;;;11.00;4.60;;;;;;;;;;103937;1288;545043;-78
2023/12/12 10:30:37;;;;;;;8.20;2.10;;;;;;;;;;103875;1289;545438;-75
2023/12/12 10:34:19;;;;;;;7.10;1.80;;;;;;;;;;103782;1292;545456;-71
2023/12/12 10:37:53;;;;;;;8.60;2.40;;;;;;;;;;103770;1292;544892;-72
2023/12/12 10:41:30;;;;;;;7.00;2.30;;;;;;;;;;103699;1292;545141;-71
2023/12/12 10:45:12;;;;;;;10.30;3.10;;;;;;;;;;103728;1295;544780;-78
2023/12/12 10:48:46;;;;;;;6.90;2.60;;;;;;;;;;103580;1298;545044;-75
2023/12/12 10:52:22;;;;;;;5.00;1.80;;;;;;;;;;104584;1286;544761;-76
2023/12/12 10:56:00;;;;;;;7.40;2.60;;;;;;;;;;103721;1292;544975;-72
2023/12/12 10:59:37;;;;;;;28.70;14.80;;;;;;;;;;103867;1292;544721;-72
2023/12/12 11:03:16;;;;;;;14.60;7.70;;;;;;;;;;103690;1293;545423;-71
2023/12/12 11:06:53;;;;;;;8.30;4.20;;;;;;;;;;104066;1288;545767;-71
2023/12/12 11:10:30;;;;;;;7.90;2.30;;;;;;;;;;103755;1295;544817;-72
2023/12/12 11:14:08;;;;;;;9.40;5.10;;;;;;;;;;103567;1295;545080;-71
2023/12/12 11:17:45;;;;;;;10.70;6.80;;;;;;;;;;103805;1292;545409;-72
2023/12/12 11:21:37;;;;;;;7.30;2.60;;;;;;;;;;103861;1289;545187;-71
2023/12/12 11:25:02;;;;;;;7.70;4.30;;;;;;;;;;103676;1298;545048;-70
2023/12/12 11:28:37;;;;;;;8.10;3.90;;;;;;;;;;103852;1289;545032;-78
2023/12/12 11:32:18;;;;;;;10.20;5.70;;;;;;;;;;103833;1289;545099;-72
2023/12/12 11:35:51;;;;;;;13.20;6.60;;;;;;;;;;103849;1288;544824;-73
2023/12/12 11:39:34;;;;;;;8.80;3.80;;;;;;;;;;103748;1292;544750;-79
2023/12/12 11:43:22;;;;;;;7.30;3.80;;;;;;;;;;103956;1289;546411;-73
2023/12/12 11:46:42;;;;;;;11.40;4.80;;;;;;;;;;103710;1292;546268;-71
2023/12/12 11:50:21;;;;;;;9.20;3.70;;;;;;;;;;103848;1295;545039;-73
2023/12/12 11:54:09;;;;;;;8.30;3.40;;;;;;;;;;103799;1293;545589;-72
2023/12/12 11:57:37;;;;;;;9.70;4.00;;;;;;;;;;103804;1291;545551;-71
2023/12/12 12:01:22;;;;;;;13.10;5.30;;;;;;;;;;103773;1291;545813;-72
2023/12/12 12:05:11;;;;;;;36.50;19.80;;;;;;;;;;104000;1287;548144;-71
2023/12/12 12:08:29;;;;;;;43.30;22.40;;;;;;;;;;103496;1298;545453;-80
2023/12/12 12:12:10;;;;;;;9.90;4.90;;;;;;;;;;103799;1292;545696;-72
2023/12/12 12:15:48;;;;;;;9.10;3.50;;;;;;;;;;103793;1290;546265;-73
2023/12/12 12:19:28;;;;;;;6.40;2.30;;;;;;;;;;103799;1289;545022;-72
2023/12/12 12:22:58;;;;;;;8.20;2.80;;;;;;;;;;103854;1292;544991;-78
2023/12/12 12:26:36;;;;;;;11.10;6.40;;;;;;;;;;103514;1295;544791;-74
2023/12/12 12:30:14;;;;;;;7.80;2.90;;;;;;;;;;103716;1292;544801;-80
2023/12/12 12:33:51;;;;;;;6.60;2.80;;;;;;;;;;103811;1290;545728;-72
2023/12/12 12:37:33;;;;;;;9.10;4.20;;;;;;;;;;103758;1294;544915;-73
2023/12/12 12:41:20;;;;;;;10.10;4.30;;;;;;;;;;103832;1289;544982;-72
2023/12/12 12:44:43;;;;;;;8.60;3.30;;;;;;;;;;103743;1289;545232;-71
2023/12/12 12:48:22;;;;;;;8.10;3.60;;;;;;;;;;103818;1301;544843;-72
2023/12/12 12:51:59;;;;;;;7.60;2.50;;;;;;;;;;103851;1290;545410;-71
2023/12/12 12:55:36;;;;;;;8.90;3.60;;;;;;;;;;103539;1295;546278;-72
2023/12/12 12:59:18;;;;;;;10.60;5.50;;;;;;;;;;103865;1292;544943;-78
2023/12/12 13:02:51;;;;;;;9.10;4.60;;;;;;;;;;103799;1292;544975;-72
2023/12/12 13:06:31;;;;;;;7.50;3.30;;;;;;;;;;103584;1293;546136;-80
2023/12/12 13:10:08;;;;;;;8.00;3.90;;;;;;;;;;103781;1291;544724;-72
2023/12/12 13:13:43;;;;;;;11.50;5.40;;;;;;;;;;103774;1289;544954;-73
2023/12/12 13:17:21;;;;;;;9.60;3.00;;;;;;;;;;103814;1292;544752;-71
2023/12/12 13:20:58;;;;;;;6.80;2.70;;;;;;;;;;103892;1292;544726;-73
2023/12/12 13:24:36;;;;;;;8.20;3.10;;;;;;;;;;103841;1292;545652;-77
2023/12/12 13:28:13;;;;;;;8.40;4.10;;;;;;;;;;103819;1294;546236;-72
2023/12/12 13:31:47;;;;;;;8.10;3.50;;;;;;;;;;104080;1289;544840;-73
2023/12/12 13:35:28;;;;;;;15.30;8.60;;;;;;;;;;103776;1289;545006;-71
2023/12/12 13:39:12;;;;;;;24.20;15.20;;;;;;;;;;103892;1294;544954;-71
2023/12/12 13:42:42;;;;;;;14.10;7.10;;;;;;;;;;104332;1284;544836;-71
2023/12/12 13:46:20;;;;;;;9.70;5.20;;;;;;;;;;103792;1291;545498;-78
2023/12/12 13:49:58;;;;;;;7.60;3.00;;;;;;;;;;103788;1290;544876;-79
2023/12/12 13:53:36;;;;;;;5.60;2.50;;;;;;;;;;103776;1292;545267;-72
2023/12/12 13:57:13;;;;;;;29.10;16.60;;;;;;;;;;103781;1291;544842;-75
2023/12/12 14:00:50;;;;;;;24.40;12.60;;;;;;;;;;103546;1295;545009;-73
2023/12/12 14:04:28;;;;;;;39.20;19.80;;;;;;;;;;103778;1291;545057;-76
2023/12/12 14:08:06;;;;;;;29.20;18.00;;;;;;;;;;103817;1292;544846;-72
2023/12/12 14:11:42;;;;;;;14.40;9.00;;;;;;;;;;103546;1292;544977;-71
2023/12/12 14:15:20;;;;;;;25.50;16.50;;;;;;;;;;103811;1291;545238;-72
2023/12/12 14:18:57;;;;;;;18.60;11.00;;;;;;;;;;103814;1292;544942;-73
2023/12/12 14:22:35;;;;;;;22.00;11.20;;;;;;;;;;103815;1290;544900;-76
2023/12/12 14:26:12;;;;;;;28.60;15.60;;;;;;;;;;103823;1291;544816;-72
2023/12/12 14:29:50;;;;;;;27.70;14.00;;;;;;;;;;103784;1292;546015;-72
2023/12/12 14:33:23;;;;;;;34.10;20.70;;;;;;;;;;103789;1292;544736;-72
2023/12/12 14:37:05;;;;;;;23.60;13.60;;;;;;;;;;103781;1291;544782;-72
2023/12/12 14:40:43;;;;;;;18.90;11.20;;;;;;;;;;103884;1292;545096;-72
2023/12/12 14:44:20;;;;;;;19.20;11.00;;;;;;;;;;103932;1289;544728;-71
2023/12/12 14:47:58;;;;;;;20.60;11.20;;;;;;;;;;103650;1292;545343;-77
2023/12/12 14:51:34;;;;;;;19.50;10.90;;;;;;;;;;103879;1292;544884;-71
2023/12/12 14:55:14;;;;;;;30.00;19.10;;;;;;;;;;103834;1289;545656;-72
2023/12/12 14:58:49;;;;;;;44.40;27.40;;;;;;;;;;103805;1294;545194;-72
2023/12/12 15:02:28;;;;;;;59.20;30.70;;;;;;;;;;104527;1283;544872;-73
2023/12/12 15:06:05;;;;;;;58.20;27.60;;;;;;;;;;104025;1289;545076;-72
2023/12/12 15:09:42;;;;;;;41.90;21.00;;;;;;;;;;103807;1294;545732;-71
2023/12/12 15:13:19;;;;;;;42.00;21.90;;;;;;;;;;104249;1285;544922;-72
2023/12/12 15:16:53;;;;;;;35.70;18.90;;;;;;;;;;103893;1289;544666;-72
2023/12/12 15:20:35;;;;;;;23.10;13.10;;;;;;;;;;103868;1292;544773;-72
2023/12/12 15:24:12;;;;;;;19.00;11.00;;;;;;;;;;103954;1288;545146;-72
2023/12/12 15:27:49;;;;;;;21.00;11.90;;;;;;;;;;103890;1288;544973;-71
2023/12/12 15:31:28;;;;;;;19.70;12.30;;;;;;;;;;103799;1292;544839;-72
2023/12/12 15:35:06;;;;;;;20.60;11.10;;;;;;;;;;103749;1292;544820;-79
2023/12/12 15:38:41;;;;;;;17.20;10.30;;;;;;;;;;103800;1290;544959;-72
2023/12/12 15:42:19;;;;;;;16.70;9.80;;;;;;;;;;103739;1290;544872;-72
2023/12/12 15:45:56;;;;;;;16.00;10.60;;;;;;;;;;103581;1294;546138;-71
2023/12/12 15:49:34;;;;;;;21.30;12.40;;;;;;;;;;103569;1297;544754;-71
2023/12/12 15:53:11;;;;;;;22.00;13.10;;;;;;;;;;104098;1289;544992;-75
2023/12/12 15:56:49;;;;;;;28.90;13.50;;;;;;;;;;103521;1301;545849;-72
2023/12/12 16:00:23;;;;;;;26.10;13.40;;;;;;;;;;104650;1286;545753;-72
2023/12/12 16:04:00;;;;;;;28.60;14.50;;;;;;;;;;104127;1289;544930;-71
2023/12/12 16:08:02;;;;;;;35.60;17.40;;;;;;;;;;103772;1294;547867;-77
2023/12/12 16:11:18;;;;;;;32.30;16.90;;;;;;;;;;103800;1288;545379;-73
2023/12/12 16:14:56;;;;;;;41.50;21.20;;;;;;;;;;103538;1297;545306;-72
2023/12/12 16:18:34;;;;;;;41.90;22.40;;;;;;;;;;103954;1292;544837;-72
2023/12/12 16:22:11;;;;;;;38.70;22.00;;;;;;;;;;103838;1291;545112;-77
2023/12/12 16:25:49;;;;;;;37.20;21.10;;;;;;;;;;103950;1291;544935;-72
2023/12/12 16:29:27;;;;;;;40.70;23.70;;;;;;;;;;103765;1292;544955;-75
2023/12/12 16:33:03;;;;;;;54.80;33.60;;;;;;;;;;103825;1292;545058;-71
2023/12/12 16:36:41;;;;;;;66.10;41.70;;;;;;;;;;103785;1292;545562;-73
2023/12/12 16:40:18;;;;;;;78.80;45.30;;;;;;;;;;103742;1292;545415;-72
2023/12/12 16:43:52;;;;;;;68.60;39.60;;;;;;;;;;103836;1289;545145;-77
2023/12/12 16:47:33;;;;;;;51.20;30.60;;;;;;;;;;103557;1293;545397;-72
2023/12/12 16:51:11;;;;;;;47.70;27.30;;;;;;;;;;103996;1288;545292;-72
2023/12/12 16:54:50;;;;;;;60.50;35.50;;;;;;;;;;103823;1292;544755;-76
2023/12/12 16:58:27;;;;;;;58.60;31.70;;;;;;;;;;103768;1289;546217;-73
2023/12/12 17:02:03;;;;;;;50.40;26.10;;;;;;;;;;103768;1292;544799;-74
2023/12/12 17:05:41;;;;;;;38.00;21.50;;;;;;;;;;103805;1292;545059;-77
2023/12/12 17:09:19;;;;;;;44.10;21.70;;;;;;;;;;103727;1295;545418;-72
2023/12/12 17:12:57;;;;;;;41.50;21.40;;;;;;;;;;103778;1294;544944;-73
2023/12/12 17:16:35;;;;;;;42.30;20.20;;;;;;;;;;103799;1292;545988;-73
2023/12/12 17:20:11;;;;;;;43.80;20.80;;;;;;;;;;103739;1295;545470;-72
2023/12/12 17:23:49;;;;;;;47.80;24.40;;;;;;;;;;103980;1289;545002;-73
2023/12/12 17:27:25;;;;;;;66.00;34.30;;;;;;;;;;103708;1291;544852;-72
2023/12/12 17:31:03;;;;;;;69.80;40.10;;;;;;;;;;103775;1291;545867;-72
2023/12/12 17:34:54;;;;;;;79.50;46.60;;;;;;;;;;103788;1291;545614;-72
2023/12/12 17:38:18;;;;;;;79.00;48.80;;;;;;;;;;103705;1292;544942;-72
2023/12/12 17:41:55;;;;;;;78.90;46.10;;;;;;;;;;103755;1289;546169;-73
2023/12/12 17:45:34;;;;;;;75.30;43.30;;;;;;;;;;103858;1292;544708;-73
2023/12/12 17:49:10;;;;;;;72.80;40.70;;;;;;;;;;103734;1295;544981;-72
2023/12/12 17:52:47;;;;;;;65.10;37.60;;;;;;;;;;103702;1294;545024;-73
2023/12/12 17:56:25;;;;;;;68.30;37.60;;;;;;;;;;103575;1294;545098;-74
2023/12/12 18:00:03;;;;;;;72.80;40.50;;;;;;;;;;103747;1303;545180;-72
2023/12/12 18:03:42;;;;;;;75.00;40.20;;;;;;;;;;103881;1289;544909;-76
2023/12/12 18:07:18;;;;;;;91.80;48.30;;;;;;;;;;103849;1290;544875;-72
2023/12/12 18:10:55;;;;;;;94.50;47.40;;;;;;;;;;103785;1290;545630;-73
2023/12/12 18:14:33;;;;;;;83.40;45.70;;;;;;;;;;103795;1291;546088;-78
2023/12/12 18:18:11;;;;;;;91.70;47.60;;;;;;;;;;103792;1289;545116;-73
2023/12/12 18:21:48;;;;;;;96.30;45.60;;;;;;;;;;103795;1289;545471;-73
2023/12/12 18:25:25;;;;;;;83.50;42.50;;;;;;;;;;103831;1288;545027;-74
2023/12/12 18:29:04;;;;;;;85.30;44.90;;;;;;;;;;103771;1291;544984;-73
2023/12/12 18:32:59;;;;;;;70.80;38.50;;;;;;;;;;104063;1292;548406;-79
2023/12/12 18:36:18;;;;;;;54.60;32.80;;;;;;;;;;103874;1295;546682;-79
2023/12/12 18:39:55;;;;;;;51.40;29.10;;;;;;;;;;103895;1295;544832;-72
2023/12/12 18:43:33;;;;;;;48.20;26.10;;;;;;;;;;103737;1293;544956;-73
2023/12/12 18:47:10;;;;;;;51.50;28.60;;;;;;;;;;103865;1291;545460;-77
2023/12/12 18:50:47;;;;;;;66.40;39.50;;;;;;;;;;103858;1289;545536;-73
2023/12/12 18:54:25;;;;;;;59.40;36.90;;;;;;;;;;103796;1291;544814;-73
2023/12/12 18:58:02;;;;;;;66.10;40.80;;;;;;;;;;103848;1292;544716;-73
2023/12/12 19:02:00;;;;;;;64.50;35.00;;;;;;;;;;103688;1294;549181;-77
2023/12/12 19:05:17;;;;;;;65.40;36.70;;;;;;;;;;104301;1287;545266;-78
2023/12/12 19:08:55;;;;;;;58.20;33.40;;;;;;;;;;103813;1289;544974;-72
2023/12/12 19:12:35;;;;;;;58.60;33.30;;;;;;;;;;103932;1292;545041;-72
2023/12/12 19:16:13;;;;;;;59.00;33.50;;;;;;;;;;103732;1289;544723;-77
2023/12/12 19:19:46;;;;;;;57.50;31.50;;;;;;;;;;103844;1291;545124;-75
2023/12/12 19:23:27;;;;;;;59.10;31.50;;;;;;;;;;103773;1289;545260;-74
2023/12/12 19:27:02;;;;;;;62.80;35.60;;;;;;;;;;104062;1292;544800;-72
2023/12/12 19:30:39;;;;;;;64.30;36.20;;;;;;;;;;103687;1291;544981;-73
2023/12/12 19:34:22;;;;;;;57.00;35.60;;;;;;;;;;103700;1290;548558;-76
2023/12/12 19:37:52;;;;;;;47.60;27.90;;;;;;;;;;103917;1292;544954;-73
2023/12/12 19:41:36;;;;;;;40.20;24.20;;;;;;;;;;103695;1292;545050;-71
2023/12/12 19:45:10;;;;;;;42.80;26.30;;;;;;;;;;103813;1289;545703;-72
2023/12/12 19:48:53;;;;;;;45.30;27.70;;;;;;;;;;103955;1302;548726;-79
2023/12/12 19:52:24;;;;;;;51.40;32.60;;;;;;;;;;103644;1291;545014;-72
2023/12/12 19:56:03;;;;;;;63.50;33.40;;;;;;;;;;103752;1292;545999;-72
2023/12/12 19:59:39;;;;;;;62.90;35.10;;;;;;;;;;103750;1295;545637;-77
2023/12/12 20:03:17;;;;;;;168.20;90.30;;;;;;;;;;103866;1291;544990;-72
2023/12/12 20:06:54;;;;;;;113.50;63.80;;;;;;;;;;103633;1294;545665;-72
2023/12/12 20:10:32;;;;;;;90.80;49.80;;;;;;;;;;104127;1290;544875;-73
2023/12/12 20:14:09;;;;;;;66.00;37.80;;;;;;;;;;103826;1288;544908;-78
2023/12/12 20:17:48;;;;;;;61.70;35.90;;;;;;;;;;104035;1288;545021;-72
2023/12/12 20:21:24;;;;;;;60.60;37.40;;;;;;;;;;103853;1292;545298;-74
2023/12/12 20:25:01;;;;;;;69.90;42.60;;;;;;;;;;104140;1291;545095;-73
2023/12/12 20:28:39;;;;;;;74.50;42.20;;;;;;;;;;103837;1290;545011;-73
2023/12/12 20:32:16;;;;;;;93.00;46.80;;;;;;;;;;103768;1289;545223;-73
2023/12/12 20:35:55;;;;;;;100.40;52.30;;;;;;;;;;103833;1290;545254;-72
2023/12/12 20:39:31;;;;;;;105.90;55.20;;;;;;;;;;103753;1292;545802;-78
2023/12/12 20:43:09;;;;;;;107.10;58.30;;;;;;;;;;103794;1292;544950;-71
2023/12/12 20:46:45;;;;;;;103.40;54.40;;;;;;;;;;103799;1293;546124;-72
2023/12/12 20:50:23;;;;;;;95.70;50.10;;;;;;;;;;103882;1289;545431;-72